Big Rapids, Michigan
Current Conditions -  °F | °C
As of 2:14 PM on Friday 28 Nov 2014 (Local Time) from KRQB Reporting Station
Light Snow Light Snow  
Wind Chill: 16°   Ceiling: 1400
Heat Index: 24°   Visibility: 3mi
Dew Point: 22°   Wind: 8mph
Humidity: 91%   Direction: 160°SSE
Pressure: 30.1"   Gusts: NA
Location:  43.7°N, 85.48°W
Report Text: KRQB 281914Z AUTO 16007KT 3SM -SN OVC014 M04/M05 A3010 RMK AO2 T10421055
Loading
Personal Weather Stations






























Interactive Weather Map New forecast layout! Learn more

10-Day Weather Forecast

Advertisements
Track Severe Weather on mobile